Time;durP1;ratioP1;P1;durP2;ratioP2;P2;SDS_P1;SDS_P2;PMS_P1;PMS_P2;Temp;Humidity;BMP_temperature;BMP_pressure;BME280_temperature;BME280_humidity;BME280_pressure;Samples;Min_cycle;Max_cycle;Signal;HPM_P1;HPM_P2
2023/12/26 00:01:27;;;;;;;11.70;1.10;;;;;;;;;;4990104;28;20409;-67
2023/12/26 00:03:54;;;;;;;14.15;1.40;;;;;;;;;;4990121;28;20050;-66
2023/12/26 00:06:22;;;;;;;11.05;0.68;;;;;;;;;;4984986;28;20544;-67
2023/12/26 00:08:49;;;;;;;10.55;1.38;;;;;;;;;;4983962;28;20049;-67
2023/12/26 00:11:17;;;;;;;12.43;1.13;;;;;;;;;;4980194;28;20477;-67
2023/12/26 00:13:44;;;;;;;15.48;1.38;;;;;;;;;;4980757;28;20536;-68
2023/12/26 00:16:11;;;;;;;14.93;1.63;;;;;;;;;;4981449;28;20046;-67
2023/12/26 00:18:40;;;;;;;10.85;1.08;;;;;;;;;;4979900;28;20482;-67
2023/12/26 00:21:08;;;;;;;11.85;1.13;;;;;;;;;;4984470;28;20081;-67
2023/12/26 00:23:35;;;;;;;13.40;1.50;;;;;;;;;;4960164;28;20420;-67
2023/12/26 00:26:02;;;;;;;16.42;1.60;;;;;;;;;;4977189;28;20061;-67
2023/12/26 00:28:30;;;;;;;15.95;1.48;;;;;;;;;;4981326;28;20109;-67
2023/12/26 00:30:57;;;;;;;7.95;1.23;;;;;;;;;;4983373;28;20378;-67
2023/12/26 00:33:24;;;;;;;15.55;0.90;;;;;;;;;;4989331;28;20047;-66
2023/12/26 00:35:54;;;;;;;13.60;1.40;;;;;;;;;;4984421;28;20050;-67
2023/12/26 00:38:21;;;;;;;19.40;2.22;;;;;;;;;;4985793;28;20050;-66
2023/12/26 00:40:48;;;;;;;16.13;1.88;;;;;;;;;;4987989;28;20042;-68
2023/12/26 00:43:16;;;;;;;25.52;2.67;;;;;;;;;;4989725;28;20061;-66
2023/12/26 00:45:43;;;;;;;19.70;2.00;;;;;;;;;;4989604;28;20130;-67
2023/12/26 00:48:10;;;;;;;22.90;1.63;;;;;;;;;;4987207;28;20515;-67
2023/12/26 00:50:41;;;;;;;16.30;2.33;;;;;;;;;;4989598;28;20046;-67
2023/12/26 00:53:10;;;;;;;12.98;1.65;;;;;;;;;;4987882;28;20064;-69
2023/12/26 00:55:37;;;;;;;16.70;1.42;;;;;;;;;;4989537;28;20124;-68
2023/12/26 00:58:04;;;;;;;16.45;1.30;;;;;;;;;;4990045;28;20060;-68
2023/12/26 01:00:32;;;;;;;17.50;1.27;;;;;;;;;;4989593;28;20050;-68
2023/12/26 01:02:59;;;;;;;20.73;1.77;;;;;;;;;;4983617;28;20053;-68
2023/12/26 01:05:26;;;;;;;18.05;1.58;;;;;;;;;;4984649;28;20057;-68
2023/12/26 01:07:54;;;;;;;16.13;1.50;;;;;;;;;;4971963;28;20057;-68
2023/12/26 01:10:22;;;;;;;16.92;2.35;;;;;;;;;;4986216;28;20057;-69
2023/12/26 01:12:50;;;;;;;22.70;2.17;;;;;;;;;;4987580;28;20050;-68
2023/12/26 01:15:17;;;;;;;21.80;1.85;;;;;;;;;;4968900;28;21091;-68
2023/12/26 01:17:45;;;;;;;25.25;2.25;;;;;;;;;;4989232;28;20051;-68
2023/12/26 01:20:12;;;;;;;21.15;2.17;;;;;;;;;;4969008;28;20058;-68
2023/12/26 01:22:39;;;;;;;18.67;1.75;;;;;;;;;;4989739;28;20050;-68
2023/12/26 01:25:07;;;;;;;21.90;2.35;;;;;;;;;;4981581;28;20117;-68
2023/12/26 01:27:36;;;;;;;16.58;1.70;;;;;;;;;;4989943;28;20046;-68
2023/12/26 01:30:03;;;;;;;19.45;2.30;;;;;;;;;;4982868;28;20081;-68
2023/12/26 01:32:31;;;;;;;21.42;2.22;;;;;;;;;;4989093;28;20133;-68
2023/12/26 01:34:58;;;;;;;18.77;2.13;;;;;;;;;;4986655;28;20062;-68
2023/12/26 01:37:25;;;;;;;26.35;2.08;;;;;;;;;;4989484;28;20058;-68
2023/12/26 01:39:52;;;;;;;15.25;2.13;;;;;;;;;;4981727;28;20054;-68
2023/12/26 01:42:20;;;;;;;25.40;2.15;;;;;;;;;;4987275;28;20061;-68
2023/12/26 01:44:48;;;;;;;17.92;2.08;;;;;;;;;;4979613;28;20051;-68
2023/12/26 01:47:16;;;;;;;17.92;2.00;;;;;;;;;;4988648;28;20050;-68
2023/12/26 01:49:44;;;;;;;23.38;2.60;;;;;;;;;;4985615;28;20057;-68
2023/12/26 01:52:11;;;;;;;12.45;1.98;;;;;;;;;;4982672;28;20054;-68
2023/12/26 01:54:39;;;;;;;20.13;1.83;;;;;;;;;;4978903;28;20054;-68
2023/12/26 01:57:08;;;;;;;16.15;1.70;;;;;;;;;;4977790;28;20046;-68
2023/12/26 01:59:36;;;;;;;22.25;2.67;;;;;;;;;;4981597;28;20054;-68
2023/12/26 02:02:05;;;;;;;21.27;2.15;;;;;;;;;;4984269;28;20047;-68
2023/12/26 02:04:32;;;;;;;21.70;2.22;;;;;;;;;;4981918;28;20069;-66
2023/12/26 02:07:00;;;;;;;13.45;1.52;;;;;;;;;;4987629;28;20457;-67
2023/12/26 02:09:29;;;;;;;15.68;1.98;;;;;;;;;;4988034;28;20044;-66
2023/12/26 02:11:57;;;;;;;18.35;2.30;;;;;;;;;;4988281;28;20054;-66
2023/12/26 02:14:24;;;;;;;17.35;2.08;;;;;;;;;;4989291;28;20060;-66
2023/12/26 02:16:53;;;;;;;17.70;1.77;;;;;;;;;;4973102;28;20057;-66
2023/12/26 02:19:22;;;;;;;20.05;1.95;;;;;;;;;;4978674;28;20052;-67
2023/12/26 02:21:49;;;;;;;15.10;1.58;;;;;;;;;;4985694;28;20152;-67
2023/12/26 02:24:18;;;;;;;15.93;3.15;;;;;;;;;;4981592;28;20046;-66
2023/12/26 02:26:45;;;;;;;16.10;2.40;;;;;;;;;;4985799;28;20045;-66
2023/12/26 02:29:13;;;;;;;17.73;2.13;;;;;;;;;;4982346;28;20074;-66
2023/12/26 02:31:42;;;;;;;19.00;1.88;;;;;;;;;;4982439;28;20046;-67
2023/12/26 02:34:09;;;;;;;11.10;1.52;;;;;;;;;;4986167;28;20058;-66
2023/12/26 02:36:37;;;;;;;14.32;2.15;;;;;;;;;;4982777;28;20070;-66
2023/12/26 02:39:04;;;;;;;12.00;1.50;;;;;;;;;;4988211;28;20046;-66
2023/12/26 02:41:33;;;;;;;13.10;1.50;;;;;;;;;;4983167;28;20046;-67
2023/12/26 02:44:01;;;;;;;17.67;2.30;;;;;;;;;;4983757;28;20049;-67
2023/12/26 02:46:28;;;;;;;15.25;2.58;;;;;;;;;;4989300;28;20450;-66
2023/12/26 02:48:58;;;;;;;13.00;1.85;;;;;;;;;;4986491;28;20048;-67
2023/12/26 02:51:25;;;;;;;18.30;2.10;;;;;;;;;;4985249;28;20081;-67
2023/12/26 02:53:53;;;;;;;12.98;1.65;;;;;;;;;;4992927;28;20157;-66
2023/12/26 02:56:20;;;;;;;16.23;2.35;;;;;;;;;;4980336;28;20051;-67
2023/12/26 02:58:49;;;;;;;16.48;2.35;;;;;;;;;;4982010;28;20050;-66
2023/12/26 03:01:16;;;;;;;12.77;1.55;;;;;;;;;;4989054;28;20038;-67
2023/12/26 03:03:43;;;;;;;17.95;2.15;;;;;;;;;;4987020;28;20042;-67
2023/12/26 03:06:10;;;;;;;19.80;2.08;;;;;;;;;;4988717;28;20081;-67
2023/12/26 03:08:38;;;;;;;12.52;1.52;;;;;;;;;;4984734;28;20042;-67
2023/12/26 03:11:05;;;;;;;19.25;1.73;;;;;;;;;;4982591;28;20465;-66
2023/12/26 03:13:33;;;;;;;12.48;1.38;;;;;;;;;;4987368;28;20125;-67
2023/12/26 03:16:01;;;;;;;13.45;2.13;;;;;;;;;;4988513;28;20497;-66
2023/12/26 03:18:28;;;;;;;16.83;2.10;;;;;;;;;;4987976;28;20051;-66
2023/12/26 03:20:56;;;;;;;13.95;1.88;;;;;;;;;;4988331;28;20046;-66
2023/12/26 03:23:23;;;;;;;16.75;2.67;;;;;;;;;;4982226;28;20046;-66
2023/12/26 03:25:50;;;;;;;14.73;1.73;;;;;;;;;;4977540;28;20050;-66
2023/12/26 03:28:18;;;;;;;21.30;2.63;;;;;;;;;;4975190;28;20510;-66
2023/12/26 03:30:45;;;;;;;19.13;2.90;;;;;;;;;;4975292;28;20144;-66
2023/12/26 03:33:14;;;;;;;17.05;2.13;;;;;;;;;;4980826;28;20058;-66
2023/12/26 03:35:41;;;;;;;18.02;2.42;;;;;;;;;;4986217;28;20047;-66
2023/12/26 03:38:08;;;;;;;20.17;1.70;;;;;;;;;;4985631;28;20055;-66
2023/12/26 03:40:35;;;;;;;21.25;2.72;;;;;;;;;;4985754;28;20085;-66
2023/12/26 03:43:03;;;;;;;15.52;2.20;;;;;;;;;;4978938;28;20805;-66
2023/12/26 03:45:31;;;;;;;24.73;2.92;;;;;;;;;;4990684;28;20098;-66
2023/12/26 03:47:58;;;;;;;17.08;1.92;;;;;;;;;;4990302;28;20058;-65
2023/12/26 03:50:27;;;;;;;20.00;2.83;;;;;;;;;;4990050;28;20504;-67
2023/12/26 03:52:54;;;;;;;10.07;1.67;;;;;;;;;;4991498;28;20046;-65
2023/12/26 03:55:22;;;;;;;25.98;2.60;;;;;;;;;;4990937;28;20468;-66
2023/12/26 03:57:49;;;;;;;16.77;1.80;;;;;;;;;;4991835;28;20772;-66
2023/12/26 04:00:17;;;;;;;17.05;2.05;;;;;;;;;;4991418;28;20050;-66
2023/12/26 04:02:44;;;;;;;20.70;1.90;;;;;;;;;;4991538;28;20584;-66
2023/12/26 04:05:12;;;;;;;20.50;2.58;;;;;;;;;;4987652;28;20561;-66
2023/12/26 04:07:40;;;;;;;12.73;2.08;;;;;;;;;;4989664;28;20090;-66
2023/12/26 04:10:08;;;;;;;16.20;1.70;;;;;;;;;;4990789;28;20058;-66
2023/12/26 04:12:35;;;;;;;24.27;2.15;;;;;;;;;;4989567;28;20133;-67
2023/12/26 04:15:03;;;;;;;21.30;2.10;;;;;;;;;;4972781;28;20077;-66
2023/12/26 04:17:30;;;;;;;22.50;2.13;;;;;;;;;;4989621;28;20078;-67
2023/12/26 04:19:57;;;;;;;17.35;2.13;;;;;;;;;;4987273;28;20046;-66
2023/12/26 04:22:25;;;;;;;20.98;1.90;;;;;;;;;;4988993;28;20412;-67
2023/12/26 04:24:53;;;;;;;13.02;1.95;;;;;;;;;;4991682;28;20096;-66
2023/12/26 04:27:22;;;;;;;19.73;1.85;;;;;;;;;;4968396;28;20054;-66
2023/12/26 04:29:49;;;;;;;18.38;2.15;;;;;;;;;;4982771;28;20133;-66
2023/12/26 04:32:16;;;;;;;15.68;2.15;;;;;;;;;;4989308;28;20074;-66
2023/12/26 04:34:43;;;;;;;18.73;1.80;;;;;;;;;;4990267;28;20050;-67
2023/12/26 04:37:11;;;;;;;14.55;2.05;;;;;;;;;;4990078;28;20095;-66
2023/12/26 04:39:37;;;;;;;20.58;2.33;;;;;;;;;;4976079;28;20679;-66
2023/12/26 04:42:06;;;;;;;14.50;2.25;;;;;;;;;;4989586;28;20050;-66
2023/12/26 04:44:33;;;;;;;14.77;2.53;;;;;;;;;;4990506;28;20492;-65
2023/12/26 04:47:01;;;;;;;13.00;1.60;;;;;;;;;;4987900;28;20054;-66
2023/12/26 04:49:28;;;;;;;21.92;2.15;;;;;;;;;;4990411;28;20058;-66
2023/12/26 04:51:55;;;;;;;17.60;1.40;;;;;;;;;;4988386;28;20549;-66
2023/12/26 04:54:22;;;;;;;11.80;1.65;;;;;;;;;;4972543;28;20046;-66
2023/12/26 04:56:50;;;;;;;17.13;2.60;;;;;;;;;;4988874;28;20679;-66
2023/12/26 04:59:18;;;;;;;18.35;1.65;;;;;;;;;;4973632;28;20397;-66
2023/12/26 05:01:46;;;;;;;16.23;2.50;;;;;;;;;;4963909;28;20054;-66
2023/12/26 05:04:13;;;;;;;15.02;1.75;;;;;;;;;;4989438;28;20052;-66
2023/12/26 05:06:41;;;;;;;17.25;1.90;;;;;;;;;;4990130;28;20054;-66
2023/12/26 05:09:08;;;;;;;17.10;1.73;;;;;;;;;;4989345;28;20050;-66
2023/12/26 05:11:35;;;;;;;10.10;1.90;;;;;;;;;;4989811;28;20063;-66
2023/12/26 05:14:02;;;;;;;9.98;1.40;;;;;;;;;;4988881;28;20103;-66
2023/12/26 05:16:31;;;;;;;11.23;2.55;;;;;;;;;;4988405;28;20500;-65
2023/12/26 05:18:58;;;;;;;18.65;1.42;;;;;;;;;;4987588;28;20061;-66
2023/12/26 05:21:26;;;;;;;17.08;2.85;;;;;;;;;;4989068;28;20409;-66
2023/12/26 05:23:53;;;;;;;13.27;1.67;;;;;;;;;;4987280;28;20038;-66
2023/12/26 05:26:20;;;;;;;16.15;1.98;;;;;;;;;;4983903;28;20051;-66
2023/12/26 05:28:47;;;;;;;13.18;1.23;;;;;;;;;;4986896;28;20048;-66
2023/12/26 05:31:15;;;;;;;16.90;2.30;;;;;;;;;;4989272;28;20047;-66
2023/12/26 05:33:43;;;;;;;13.98;2.25;;;;;;;;;;4988546;28;20074;-66
2023/12/26 05:36:11;;;;;;;19.40;1.95;;;;;;;;;;4969922;28;20105;-66
2023/12/26 05:38:38;;;;;;;14.45;1.83;;;;;;;;;;4983936;28;20149;-66
2023/12/26 05:41:05;;;;;;;14.02;1.80;;;;;;;;;;4967084;28;20129;-65
2023/12/26 05:43:33;;;;;;;7.85;1.73;;;;;;;;;;4984241;28;20481;-65
2023/12/26 05:46:02;;;;;;;15.70;2.10;;;;;;;;;;4988428;28;20125;-66
2023/12/26 05:48:29;;;;;;;13.82;2.13;;;;;;;;;;4985406;28;20050;-66
2023/12/26 05:50:58;;;;;;;20.58;2.00;;;;;;;;;;4988373;28;21222;-65
2023/12/26 05:53:29;;;;;;;19.63;2.22;;;;;;;;;;4987652;28;20042;-65
2023/12/26 05:55:56;;;;;;;15.95;1.92;;;;;;;;;;4986324;28;20058;-65
2023/12/26 05:58:24;;;;;;;13.93;2.10;;;;;;;;;;4988611;28;20046;-65
2023/12/26 06:00:51;;;;;;;13.23;1.98;;;;;;;;;;4969643;28;20066;-65
2023/12/26 06:03:18;;;;;;;17.83;1.92;;;;;;;;;;4987555;28;20050;-66
2023/12/26 06:05:46;;;;;;;20.50;2.50;;;;;;;;;;4988668;28;20390;-66
2023/12/26 06:08:15;;;;;;;24.15;2.30;;;;;;;;;;4986576;28;20082;-65
2023/12/26 06:10:42;;;;;;;16.50;1.98;;;;;;;;;;4987009;28;20049;-68
2023/12/26 06:13:10;;;;;;;16.88;1.83;;;;;;;;;;4981730;28;20054;-65
2023/12/26 06:15:37;;;;;;;17.23;2.17;;;;;;;;;;4970736;28;20066;-66
2023/12/26 06:18:05;;;;;;;21.52;3.05;;;;;;;;;;4971578;28;20057;-65
2023/12/26 06:20:32;;;;;;;24.02;2.70;;;;;;;;;;4987524;28;20437;-65
2023/12/26 06:22:59;;;;;;;25.42;2.47;;;;;;;;;;4988313;28;20069;-66
2023/12/26 06:25:28;;;;;;;15.98;2.72;;;;;;;;;;4987114;28;20064;-65
2023/12/26 06:27:55;;;;;;;23.52;2.47;;;;;;;;;;4983442;28;20045;-66
2023/12/26 06:30:22;;;;;;;17.42;2.83;;;;;;;;;;4988632;28;20054;-65
2023/12/26 06:32:50;;;;;;;15.55;2.50;;;;;;;;;;4987768;28;20137;-65
2023/12/26 06:35:17;;;;;;;24.52;2.38;;;;;;;;;;4988927;28;20050;-65
2023/12/26 06:37:44;;;;;;;16.73;2.70;;;;;;;;;;4985702;28;20081;-65
2023/12/26 06:40:12;;;;;;;18.42;2.50;;;;;;;;;;4983640;28;20051;-65
2023/12/26 06:42:41;;;;;;;22.80;2.75;;;;;;;;;;4988588;28;20050;-66
2023/12/26 06:45:09;;;;;;;15.27;2.28;;;;;;;;;;4985490;28;20513;-68
2023/12/26 06:47:36;;;;;;;19.52;1.83;;;;;;;;;;4986272;28;20051;-68
2023/12/26 06:50:03;;;;;;;25.42;2.85;;;;;;;;;;4984162;28;20053;-68
2023/12/26 06:52:31;;;;;;;23.05;2.70;;;;;;;;;;4988403;28;20154;-68
2023/12/26 06:54:58;;;;;;;19.65;2.30;;;;;;;;;;4987483;28;20054;-68
2023/12/26 06:57:25;;;;;;;20.90;3.13;;;;;;;;;;4989070;28;20110;-68
2023/12/26 06:59:54;;;;;;;23.88;2.33;;;;;;;;;;4970398;28;20185;-68
2023/12/26 07:02:21;;;;;;;16.75;2.13;;;;;;;;;;4989062;28;20050;-67
2023/12/26 07:04:49;;;;;;;15.00;2.15;;;;;;;;;;4986961;28;20669;-68
2023/12/26 07:07:16;;;;;;;24.73;2.40;;;;;;;;;;4988282;28;20159;-68
2023/12/26 07:09:43;;;;;;;16.00;2.35;;;;;;;;;;4985264;28;20046;-67
2023/12/26 07:12:11;;;;;;;12.80;2.00;;;;;;;;;;4987277;28;20603;-67
2023/12/26 07:14:38;;;;;;;14.38;2.20;;;;;;;;;;4986589;28;20490;-67
2023/12/26 07:17:07;;;;;;;18.90;1.95;;;;;;;;;;4986599;28;20050;-68
2023/12/26 07:19:34;;;;;;;15.25;2.95;;;;;;;;;;4990878;28;20057;-68
2023/12/26 07:22:01;;;;;;;21.60;2.60;;;;;;;;;;4983427;28;20053;-68
2023/12/26 07:24:29;;;;;;;20.00;2.80;;;;;;;;;;4982223;28;20058;-68
2023/12/26 07:26:56;;;;;;;20.38;4.05;;;;;;;;;;4988467;28;20053;-68
2023/12/26 07:29:23;;;;;;;16.10;2.83;;;;;;;;;;4987477;28;20054;-67
2023/12/26 07:31:53;;;;;;;16.25;1.90;;;;;;;;;;4989479;28;20073;-68
2023/12/26 07:34:22;;;;;;;18.15;2.60;;;;;;;;;;4987273;28;20480;-68
2023/12/26 07:36:49;;;;;;;20.15;2.33;;;;;;;;;;4988975;28;20057;-68
2023/12/26 07:39:17;;;;;;;8.13;1.70;;;;;;;;;;4991208;28;20054;-67
2023/12/26 07:41:44;;;;;;;19.35;3.22;;;;;;;;;;4988758;28;20042;-68
2023/12/26 07:44:11;;;;;;;23.10;2.63;;;;;;;;;;4991100;28;20060;-68
2023/12/26 07:46:38;;;;;;;18.60;2.83;;;;;;;;;;4988500;28;20049;-67
2023/12/26 07:49:06;;;;;;;17.63;2.92;;;;;;;;;;4990080;28;20050;-67
2023/12/26 07:51:35;;;;;;;15.13;2.50;;;;;;;;;;4987116;28;20077;-68
2023/12/26 07:54:02;;;;;;;23.90;2.33;;;;;;;;;;4990296;28;20144;-68
2023/12/26 07:56:30;;;;;;;16.98;2.15;;;;;;;;;;4983936;28;20058;-68
2023/12/26 07:58:57;;;;;;;14.68;2.22;;;;;;;;;;4991001;28;20056;-68
2023/12/26 08:01:26;;;;;;;16.20;2.15;;;;;;;;;;4989453;28;20054;-68
2023/12/26 08:03:53;;;;;;;24.45;2.72;;;;;;;;;;4978547;28;20058;-68
2023/12/26 08:06:22;;;;;;;20.25;2.03;;;;;;;;;;4987712;28;20828;-67
2023/12/26 08:08:51;;;;;;;21.15;1.90;;;;;;;;;;4989581;28;20050;-67
2023/12/26 08:11:18;;;;;;;23.30;2.38;;;;;;;;;;4969576;28;20046;-68
2023/12/26 08:13:45;;;;;;;22.13;3.55;;;;;;;;;;4985986;28;20474;-68
2023/12/26 08:16:13;;;;;;;19.58;2.65;;;;;;;;;;4985942;28;20054;-68
2023/12/26 08:18:40;;;;;;;17.25;2.10;;;;;;;;;;4987354;28;20053;-67
2023/12/26 08:21:07;;;;;;;17.90;2.20;;;;;;;;;;4984200;28;20358;-68
2023/12/26 08:23:36;;;;;;;16.17;3.03;;;;;;;;;;4987711;28;20073;-67
2023/12/26 08:26:07;;;;;;;19.63;2.75;;;;;;;;;;4989036;28;20054;-68
2023/12/26 08:28:34;;;;;;;20.92;2.78;;;;;;;;;;4990480;28;20070;-68
2023/12/26 08:31:02;;;;;;;16.85;3.05;;;;;;;;;;4984255;28;20051;-68
2023/12/26 08:33:31;;;;;;;13.43;1.90;;;;;;;;;;4985904;28;20519;-68
2023/12/26 08:35:58;;;;;;;18.85;2.58;;;;;;;;;;4989027;28;20054;-68
2023/12/26 08:38:25;;;;;;;17.27;2.10;;;;;;;;;;4969479;28;20145;-68
2023/12/26 08:40:53;;;;;;;18.88;3.25;;;;;;;;;;4988897;28;20374;-68
2023/12/26 08:43:21;;;;;;;26.27;2.30;;;;;;;;;;4969365;28;20145;-68
2023/12/26 08:45:49;;;;;;;12.45;1.65;;;;;;;;;;4969153;28;20058;-68
2023/12/26 08:48:16;;;;;;;18.33;3.25;;;;;;;;;;4988702;28;20048;-68
2023/12/26 08:50:43;;;;;;;21.20;2.55;;;;;;;;;;4986763;28;20686;-68
2023/12/26 08:53:11;;;;;;;19.02;2.20;;;;;;;;;;4970502;28;20060;-68
2023/12/26 08:55:38;;;;;;;16.67;2.00;;;;;;;;;;4990152;28;20069;-68
2023/12/26 08:58:05;;;;;;;10.05;1.77;;;;;;;;;;4986332;28;20061;-68
2023/12/26 09:00:34;;;;;;;17.15;2.17;;;;;;;;;;4986095;28;20515;-68
2023/12/26 09:03:02;;;;;;;15.50;2.92;;;;;;;;;;4988001;28;20049;-66
2023/12/26 09:05:29;;;;;;;18.83;2.92;;;;;;;;;;4989028;28;20413;-66
2023/12/26 09:07:56;;;;;;;14.65;2.40;;;;;;;;;;4988395;28;20065;-65
2023/12/26 09:10:23;;;;;;;18.05;2.00;;;;;;;;;;4986669;28;20062;-66
2023/12/26 09:12:51;;;;;;;18.23;2.50;;;;;;;;;;4989293;28;20042;-66
2023/12/26 09:15:18;;;;;;;19.23;2.03;;;;;;;;;;4986100;28;20054;-65
2023/12/26 09:17:47;;;;;;;21.10;2.55;;;;;;;;;;4988310;28;20316;-67
2023/12/26 09:20:14;;;;;;;19.73;2.35;;;;;;;;;;4985330;28;20050;-66
2023/12/26 09:22:41;;;;;;;18.05;2.17;;;;;;;;;;4987718;28;20046;-66
2023/12/26 09:25:09;;;;;;;12.32;1.63;;;;;;;;;;4970679;28;20076;-65
2023/12/26 09:27:37;;;;;;;14.05;2.70;;;;;;;;;;4984760;28;20054;-66
2023/12/26 09:30:04;;;;;;;16.75;2.13;;;;;;;;;;4986565;28;20093;-66
2023/12/26 09:32:31;;;;;;;23.67;2.67;;;;;;;;;;4989057;28;20054;-66
2023/12/26 09:35:00;;;;;;;18.67;2.22;;;;;;;;;;4984136;28;20051;-66
2023/12/26 09:37:28;;;;;;;16.98;2.72;;;;;;;;;;4986810;28;20370;-65
2023/12/26 09:39:55;;;;;;;21.05;2.67;;;;;;;;;;4987667;28;20477;-65
2023/12/26 09:42:23;;;;;;;20.90;2.92;;;;;;;;;;4988342;28;20511;-66
2023/12/26 09:44:51;;;;;;;21.63;2.20;;;;;;;;;;4988050;28;20046;-65
2023/12/26 09:47:19;;;;;;;21.17;2.05;;;;;;;;;;4970174;28;20064;-66
2023/12/26 09:49:47;;;;;;;16.90;2.13;;;;;;;;;;4969562;28;20108;-65
2023/12/26 09:52:16;;;;;;;16.25;3.05;;;;;;;;;;4986959;28;20050;-65
2023/12/26 09:54:45;;;;;;;17.92;2.35;;;;;;;;;;4987416;28;20811;-67
2023/12/26 09:57:13;;;;;;;25.67;2.35;;;;;;;;;;4987897;28;20086;-65
2023/12/26 09:59:40;;;;;;;20.73;2.28;;;;;;;;;;4986819;28;20050;-65
2023/12/26 10:02:11;;;;;;;12.27;2.40;;;;;;;;;;4986902;28;20519;-66
2023/12/26 10:04:39;;;;;;;23.10;2.88;;;;;;;;;;4984695;28;20055;-66
2023/12/26 10:07:07;;;;;;;21.52;2.20;;;;;;;;;;4984885;28;20132;-67
2023/12/26 10:09:35;;;;;;;19.90;2.30;;;;;;;;;;4983444;28;20058;-65
2023/12/26 10:12:03;;;;;;;26.17;3.08;;;;;;;;;;4981314;28;20054;-66
2023/12/26 10:14:30;;;;;;;23.42;3.15;;;;;;;;;;4969136;28;20128;-66
2023/12/26 10:16:58;;;;;;;21.20;2.70;;;;;;;;;;4984746;28;20054;-65
2023/12/26 10:19:26;;;;;;;25.88;2.72;;;;;;;;;;4987834;28;20073;-65
2023/12/26 10:21:53;;;;;;;18.73;2.70;;;;;;;;;;4985654;28;20058;-66
2023/12/26 10:24:21;;;;;;;20.00;2.25;;;;;;;;;;4980272;28;20402;-66
2023/12/26 10:26:50;;;;;;;20.40;2.40;;;;;;;;;;4985222;28;20046;-66
2023/12/26 10:29:17;;;;;;;19.52;3.25;;;;;;;;;;4987334;28;20054;-65
2023/12/26 10:31:45;;;;;;;19.67;3.15;;;;;;;;;;4985122;28;20057;-66
2023/12/26 10:34:16;;;;;;;18.85;3.50;;;;;;;;;;4985449;28;20051;-65
2023/12/26 10:36:44;;;;;;;17.00;2.47;;;;;;;;;;4985696;28;20051;-67
2023/12/26 10:39:12;;;;;;;15.45;2.47;;;;;;;;;;4982371;28;20050;-68
2023/12/26 10:41:40;;;;;;;23.63;2.67;;;;;;;;;;4985776;28;20394;-65
2023/12/26 10:44:09;;;;;;;13.70;2.28;;;;;;;;;;4983900;28;20058;-66
2023/12/26 10:46:39;;;;;;;18.35;3.28;;;;;;;;;;4986910;28;20133;-66
2023/12/26 10:49:06;;;;;;;13.70;2.60;;;;;;;;;;4985417;28;20080;-66
2023/12/26 10:51:34;;;;;;;21.27;3.67;;;;;;;;;;4983059;28;20054;-66
2023/12/26 10:54:04;;;;;;;16.45;3.67;;;;;;;;;;4984737;28;20077;-65
2023/12/26 10:56:33;;;;;;;17.77;2.30;;;;;;;;;;4989860;28;20192;-65
2023/12/26 10:59:01;;;;;;;22.98;3.95;;;;;;;;;;4989819;28;20045;-66
2023/12/26 13:52:58;;;;;;;10.10;1.10;;;;;;;;;;4977691;28;20453;-68
2023/12/26 13:55:44;;;;;;;8.38;1.27;;;;;;;;;;4985339;28;20050;-68
2023/12/26 13:58:30;;;;;;;6.10;1.00;;;;;;;;;;4987532;28;20057;-68
2023/12/26 14:01:15;;;;;;;8.38;0.60;;;;;;;;;;4984933;28;20061;-68
2023/12/26 14:04:03;;;;;;;3.78;0.65;;;;;;;;;;4988325;28;20072;-68
2023/12/26 14:06:51;;;;;;;5.00;0.85;;;;;;;;;;4988094;28;20050;-68
2023/12/26 14:09:38;;;;;;;3.90;0.80;;;;;;;;;;4984401;28;20061;-67
2023/12/26 14:12:24;;;;;;;5.53;0.68;;;;;;;;;;4985066;28;20055;-68
2023/12/26 14:15:10;;;;;;;10.77;1.15;;;;;;;;;;4987082;28;20862;-68
2023/12/26 14:17:56;;;;;;;9.07;0.70;;;;;;;;;;4970085;28;20058;-68
2023/12/26 14:20:42;;;;;;;6.15;0.77;;;;;;;;;;4967345;28;20577;-68
2023/12/26 14:23:28;;;;;;;13.60;1.10;;;;;;;;;;4985969;28;20061;-68
2023/12/26 14:26:14;;;;;;;11.80;1.00;;;;;;;;;;4970704;28;20075;-69
2023/12/26 14:29:00;;;;;;;6.32;1.00;;;;;;;;;;4983854;28;20046;-66
2023/12/26 14:31:46;;;;;;;8.85;1.00;;;;;;;;;;4984542;28;20077;-66
2023/12/26 14:34:32;;;;;;;10.05;1.13;;;;;;;;;;4986490;28;20050;-66
2023/12/26 14:37:17;;;;;;;7.75;0.70;;;;;;;;;;4987020;28;20051;-66
2023/12/26 14:40:03;;;;;;;7.38;0.63;;;;;;;;;;4983807;28;20061;-67
2023/12/26 14:42:50;;;;;;;5.55;0.50;;;;;;;;;;4988801;28;20038;-67
2023/12/26 14:45:35;;;;;;;6.57;0.57;;;;;;;;;;4986306;28;20466;-66
2023/12/26 14:48:21;;;;;;;7.22;0.73;;;;;;;;;;4987103;28;20043;-66
2023/12/26 14:51:07;;;;;;;7.90;0.73;;;;;;;;;;4982945;28;20046;-66
2023/12/26 14:53:53;;;;;;;13.45;1.23;;;;;;;;;;4987285;28;20058;-66
2023/12/26 14:56:39;;;;;;;9.10;1.05;;;;;;;;;;4987671;28;20059;-66
2023/12/26 14:59:24;;;;;;;7.97;0.85;;;;;;;;;;4977677;28;20618;-66
2023/12/26 15:01:57;;;;;;;6.43;1.30;;;;;;;;;;4981607;28;20098;-66
2023/12/26 15:04:24;;;;;;;4.82;0.68;;;;;;;;;;4987409;28;20510;-67
2023/12/26 15:06:52;;;;;;;9.63;1.10;;;;;;;;;;4986348;28;20111;-66
2023/12/26 15:09:19;;;;;;;7.97;0.90;;;;;;;;;;4968912;28;20058;-67
2023/12/26 15:11:47;;;;;;;9.10;1.27;;;;;;;;;;4982692;28;20053;-67
2023/12/26 15:14:14;;;;;;;11.70;1.17;;;;;;;;;;4984356;28;20584;-67
2023/12/26 15:16:42;;;;;;;8.60;1.85;;;;;;;;;;4979994;28;20097;-67
2023/12/26 15:19:10;;;;;;;15.00;1.75;;;;;;;;;;4990286;28;20054;-67
2023/12/26 15:21:41;;;;;;;9.68;1.55;;;;;;;;;;4985217;28;20043;-67
2023/12/26 15:24:09;;;;;;;12.75;2.33;;;;;;;;;;4986053;28;20046;-65
2023/12/26 15:26:36;;;;;;;14.85;1.75;;;;;;;;;;4984686;28;20477;-65
2023/12/26 15:29:04;;;;;;;13.82;3.00;;;;;;;;;;4980445;28;20417;-65
2023/12/26 15:31:32;;;;;;;7.10;1.35;;;;;;;;;;4986472;28;20050;-65
2023/12/26 15:34:00;;;;;;;12.27;1.63;;;;;;;;;;4958942;28;20052;-65
2023/12/26 15:36:29;;;;;;;12.60;1.50;;;;;;;;;;4982786;28;20112;-65
2023/12/26 15:38:56;;;;;;;8.45;1.13;;;;;;;;;;4980767;28;20053;-65
2023/12/26 15:41:24;;;;;;;12.43;1.35;;;;;;;;;;4990920;28;20053;-67
2023/12/26 15:43:52;;;;;;;8.73;1.40;;;;;;;;;;4991055;28;20085;-67
2023/12/26 15:46:20;;;;;;;11.88;1.65;;;;;;;;;;4987176;28;20441;-66
2023/12/26 15:48:47;;;;;;;9.32;1.30;;;;;;;;;;4990407;28;20046;-66
2023/12/26 15:51:17;;;;;;;11.85;1.52;;;;;;;;;;4962139;28;20050;-66
2023/12/26 15:53:47;;;;;;;7.40;1.35;;;;;;;;;;4981096;28;20493;-66
2023/12/26 15:56:14;;;;;;;8.73;1.35;;;;;;;;;;4990086;28;20109;-66
2023/12/26 15:58:42;;;;;;;15.52;2.88;;;;;;;;;;4981480;28;20058;-66
2023/12/26 16:01:09;;;;;;;10.52;1.50;;;;;;;;;;4988028;28;20050;-65
2023/12/26 16:03:37;;;;;;;9.68;2.05;;;;;;;;;;4968423;28;20532;-66
2023/12/26 16:06:04;;;;;;;10.15;1.33;;;;;;;;;;4990030;28;20263;-66
2023/12/26 16:08:32;;;;;;;11.02;1.95;;;;;;;;;;4991775;28;20042;-66
2023/12/26 16:11:01;;;;;;;12.30;1.63;;;;;;;;;;4972359;28;20133;-66
2023/12/26 16:13:28;;;;;;;14.38;1.40;;;;;;;;;;4991736;28;20079;-66
2023/12/26 16:15:55;;;;;;;13.23;1.50;;;;;;;;;;4990177;28;20280;-67
2023/12/26 16:18:22;;;;;;;11.82;1.50;;;;;;;;;;4986564;28;20050;-67
2023/12/26 16:20:50;;;;;;;14.50;1.50;;;;;;;;;;4989895;28;20108;-66
2023/12/26 16:23:17;;;;;;;10.68;1.42;;;;;;;;;;4990259;28;20070;-67
2023/12/26 16:25:44;;;;;;;15.85;1.58;;;;;;;;;;4988855;28;20062;-66
2023/12/26 16:28:13;;;;;;;8.95;1.02;;;;;;;;;;4982316;28;20054;-66
2023/12/26 16:30:40;;;;;;;14.05;1.40;;;;;;;;;;4988483;28;20058;-67
2023/12/26 16:33:07;;;;;;;10.60;1.48;;;;;;;;;;4990039;28;20050;-66
2023/12/26 16:35:35;;;;;;;10.18;0.98;;;;;;;;;;4984569;28;20057;-67
2023/12/26 16:38:02;;;;;;;14.77;1.00;;;;;;;;;;4989281;28;20058;-66
2023/12/26 16:40:29;;;;;;;8.27;1.08;;;;;;;;;;4989825;28;20050;-67
2023/12/26 16:42:56;;;;;;;6.53;1.05;;;;;;;;;;4990937;28;20057;-67
2023/12/26 16:45:25;;;;;;;15.93;1.63;;;;;;;;;;4988602;28;20050;-66
2023/12/26 16:47:52;;;;;;;12.05;1.13;;;;;;;;;;4990751;28;20100;-67
2023/12/26 16:50:20;;;;;;;11.55;1.55;;;;;;;;;;4989619;28;20193;-66
2023/12/26 16:52:47;;;;;;;10.45;1.58;;;;;;;;;;4990352;28;20042;-66
2023/12/26 16:55:15;;;;;;;6.28;1.13;;;;;;;;;;4989432;28;20061;-66
2023/12/26 16:57:42;;;;;;;11.00;1.10;;;;;;;;;;4974439;28;20054;-66
2023/12/26 17:00:10;;;;;;;11.00;1.20;;;;;;;;;;4987918;28;20077;-66
2023/12/26 17:02:39;;;;;;;10.13;1.40;;;;;;;;;;4987750;28;20101;-66
2023/12/26 17:05:07;;;;;;;12.15;1.92;;;;;;;;;;4986964;28;20058;-66
2023/12/26 17:07:34;;;;;;;10.48;1.13;;;;;;;;;;4987522;28;20058;-67
2023/12/26 17:10:02;;;;;;;12.13;1.50;;;;;;;;;;4990216;28;20489;-66
2023/12/26 17:12:32;;;;;;;12.38;1.60;;;;;;;;;;4986700;28;20043;-67
2023/12/26 17:15:00;;;;;;;5.70;1.27;;;;;;;;;;4989297;28;20065;-66
2023/12/26 17:17:27;;;;;;;11.25;1.40;;;;;;;;;;4989237;28;20404;-66
2023/12/26 17:19:56;;;;;;;4.03;0.80;;;;;;;;;;4989794;28;20054;-66
2023/12/26 17:22:23;;;;;;;10.68;0.98;;;;;;;;;;4988339;28;20053;-66
2023/12/26 17:24:51;;;;;;;9.77;0.98;;;;;;;;;;4988066;28;20477;-66
2023/12/26 17:27:18;;;;;;;9.60;1.30;;;;;;;;;;4985581;28;20069;-66
2023/12/26 17:29:45;;;;;;;6.82;0.80;;;;;;;;;;4989559;28;20046;-66
2023/12/26 17:32:13;;;;;;;9.77;1.02;;;;;;;;;;4984767;28;20061;-66